KLNN/LNN METAR and TAF weather

Enter ICAO airport designator
Station Type Date Time Source
KLNN METAR 2024/07/15 20:55 UTC NOAA

KLNN 152055Z AUTO 28012G16KT 10SM CLR 27/20 A2986 RMK AO1 T02650203


Station Type Date Time Source
KLNN Decoded METAR 2024/07/15 20:55 UTC NOAA

Willoughby, OH, United States (KLNN) 41-41N 081-23W
Jul 15, 2024 - 04:55 PM EDT / 2024.07.15 2055 UTC
Wind: from the W (280 degrees) at 14 MPH (12 KT) gusting to 18 MPH (16 KT):0
Visibility: 10 mile(s):0
Sky conditions: clear
Temperature: 79.7 F (26.5 C)
Dew Point: 68.5 F (20.3 C)
Relative Humidity: 68%
Pressure (altimeter): 29.86 in. Hg (1011 hPa)
ob: KLNN 152055Z AUTO 28012G16KT 10SM CLR 27/20 A2986 RMK AO1 T02650203
cycle: 21

Station Type Date Time Source
KLNN TAF UTC NOAA

Error!

Example: see airport list